Time,TemperatureF,DewpointF,PressureIn,WindDirection,WindDirectionDegrees,WindSpeedMPH,WindSpeedGustMPH,Humidity,HourlyPrecipIn,Conditions,Clouds,dailyrainin,SoftwareType,DateUTC
2013-01-23 00:00:00,-13.0,-17.1,30.23,SSW,198,0.0,0.0,81,0.00,,SKC,0.00,VWS V14.01,2013-01-23 06:00:00,
2013-01-23 00:03:00,-11.3,-16.2,30.25,SW,232,0.0,0.0,78,0.00,,SKC,0.00,VWS V14.01,2013-01-23 06:03:00,
2013-01-23 00:08:00,-11.4,-16.1,30.25,SW,233,0.0,0.0,79,0.00,,SKC,0.00,VWS V14.01,2013-01-23 06:08:00,
2013-01-23 00:13:00,-11.6,-16.3,30.25,SW,234,0.0,0.0,79,0.00,,SKC,0.00,VWS V14.01,2013-01-23 06:13:00,
2013-01-23 00:15:00,-13.1,-17.2,30.23,SW,233,0.0,1.0,81,0.00,,SKC,0.00,VWS V14.01,2013-01-23 06:15:00,
2013-01-23 00:18:00,-11.7,-16.4,30.24,SSW,198,0.0,0.0,79,0.00,,SKC,0.00,VWS V14.01,2013-01-23 06:18:00,
2013-01-23 00:20:00,-13.1,-17.2,30.23,SW,233,0.0,0.0,81,0.00,,SKC,0.00,VWS V14.01,2013-01-23 06:20:00,
2013-01-23 00:23:00,-11.8,-16.5,30.24,SSW,198,0.0,0.0,79,0.00,,SKC,0.00,VWS V14.01,2013-01-23 06:23:00,
2013-01-23 00:25:00,-13.1,-17.2,30.23,SW,233,0.0,0.0,81,0.00,,SKC,0.00,VWS V14.01,2013-01-23 06:25:00,
2013-01-23 00:28:00,-11.9,-16.6,30.24,SSW,198,0.0,0.0,79,0.00,,SKC,0.00,VWS V14.01,2013-01-23 06:28:00,
2013-01-23 00:30:00,-13.2,-17.4,30.23,SW,233,0.0,1.0,81,0.00,,SKC,0.00,VWS V14.01,2013-01-23 06:30:00,
2013-01-23 00:33:00,-12.0,-16.7,30.24,SSW,198,0.0,0.0,79,0.00,,SKC,0.00,VWS V14.01,2013-01-23 06:33:00,
2013-01-23 00:38:00,-12.2,-16.6,30.24,SSW,198,0.0,0.0,80,0.00,,SKC,0.00,VWS V14.01,2013-01-23 06:38:00,
2013-01-23 00:40:00,-13.3,-17.5,30.23,SW,233,0.0,1.0,81,0.00,,SKC,0.00,VWS V14.01,2013-01-23 06:40:00,
2013-01-23 00:43:00,-12.3,-16.7,30.24,SSW,198,0.0,0.0,80,0.00,,SKC,0.00,VWS V14.01,2013-01-23 06:43:00,
2013-01-23 00:45:00,-13.3,-17.2,30.23,SW,233,0.0,1.0,82,0.00,,SKC,0.00,VWS V14.01,2013-01-23 06:45:00,
2013-01-23 00:48:00,-12.5,-16.9,30.23,SSW,198,0.0,0.0,80,0.00,,SKC,0.00,VWS V14.01,2013-01-23 06:48:00,
2013-01-23 00:50:00,-13.3,-17.2,30.23,SW,233,0.0,1.0,82,0.00,,SKC,0.00,VWS V14.01,2013-01-23 06:50:00,
2013-01-23 00:53:00,-12.7,-17.1,30.23,SSW,198,0.0,0.0,80,0.00,,SKC,0.00,VWS V14.01,2013-01-23 06:53:00,
2013-01-23 00:55:00,-13.3,-17.2,30.23,SW,233,0.0,0.0,82,0.00,,SKC,0.00,VWS V14.01,2013-01-23 06:55:00,
2013-01-23 00:58:00,-12.9,-17.3,30.23,SSW,198,0.0,0.0,80,0.00,,SKC,0.00,VWS V14.01,2013-01-23 06:58:00,
2013-01-23 01:00:00,-13.3,-17.2,30.23,WSW,248,0.0,1.0,82,0.00,,SKC,0.00,VWS V14.01,2013-01-23 07:00:00,
2013-01-23 01:03:00,-13.0,-17.1,30.23,SSW,198,0.0,0.0,81,0.00,,SKC,0.00,VWS V14.01,2013-01-23 07:03:00,
2013-01-23 01:05:00,-13.3,-17.2,30.23,WSW,240,0.0,1.0,82,0.00,,SKC,0.00,VWS V14.01,2013-01-23 07:05:00,
2013-01-23 01:08:00,-13.1,-17.2,30.23,SW,233,0.0,1.0,81,0.00,,SKC,0.00,VWS V14.01,2013-01-23 07:08:00,
2013-01-23 01:10:00,-13.3,-17.2,30.23,WSW,240,0.0,0.0,82,0.00,,SKC,0.00,VWS V14.01,2013-01-23 07:10:00,
2013-01-23 01:13:00,-13.1,-17.2,30.23,SW,233,0.0,1.0,81,0.00,,SKC,0.00,VWS V14.01,2013-01-23 07:13:00,
2013-01-23 01:19:00,-13.1,-17.2,30.23,SW,233,0.0,0.0,81,0.00,,SKC,0.00,VWS V14.01,2013-01-23 07:19:00,
2013-01-23 01:20:00,-13.4,-17.5,30.22,WSW,239,0.0,0.0,81,0.00,,SKC,0.00,VWS V14.01,2013-01-23 07:20:00,
2013-01-23 01:24:00,-13.1,-17.2,30.23,SW,233,0.0,0.0,81,0.00,,SKC,0.00,VWS V14.01,2013-01-23 07:24:00,
2013-01-23 01:25:00,-13.4,-17.3,30.22,WSW,240,0.0,0.0,82,0.00,,SKC,0.00,VWS V14.01,2013-01-23 07:25:00,
2013-01-23 01:29:00,-13.1,-17.2,30.23,SW,233,0.0,0.0,81,0.00,,SKC,0.00,VWS V14.01,2013-01-23 07:29:00,
2013-01-23 01:34:00,-13.2,-17.4,30.23,SW,233,0.0,0.0,81,0.00,,SKC,0.00,VWS V14.01,2013-01-23 07:34:00,
2013-01-23 01:35:00,-13.4,-17.3,30.22,WSW,239,0.0,0.0,82,0.00,,SKC,0.00,VWS V14.01,2013-01-23 07:35:00,
2013-01-23 01:39:00,-13.3,-17.5,30.23,SW,233,0.0,1.0,81,0.00,,SKC,0.00,VWS V14.01,2013-01-23 07:39:00,
2013-01-23 01:40:00,-13.4,-17.3,30.22,WSW,240,0.0,0.0,82,0.00,,SKC,0.00,VWS V14.01,2013-01-23 07:40:00,
2013-01-23 01:44:00,-13.3,-17.5,30.23,SW,233,0.0,0.0,81,0.00,,SKC,0.00,VWS V14.01,2013-01-23 07:44:00,
2013-01-23 01:45:00,-13.4,-17.3,30.22,WSW,240,0.0,0.0,82,0.00,,SKC,0.00,VWS V14.01,2013-01-23 07:45:00,
2013-01-23 01:49:00,-13.3,-17.2,30.23,SW,233,0.0,1.0,82,0.00,,SKC,0.00,VWS V14.01,2013-01-23 07:49:00,
2013-01-23 01:50:00,-13.4,-17.3,30.22,WSW,240,0.0,0.0,82,0.00,,SKC,0.00,VWS V14.01,2013-01-23 07:50:00,
2013-01-23 01:54:00,-13.3,-17.2,30.23,SW,233,0.0,0.0,82,0.00,,SKC,0.00,VWS V14.01,2013-01-23 07:54:00,
2013-01-23 01:55:00,-13.4,-17.3,30.22,WSW,240,0.0,0.0,82,0.00,,SKC,0.00,VWS V14.01,2013-01-23 07:55:00,
2013-01-23 01:59:00,-13.3,-17.2,30.23,SW,233,0.0,0.0,82,0.00,,SKC,0.00,VWS V14.01,2013-01-23 07:59:00,
2013-01-23 02:00:00,-13.4,-17.3,30.21,WSW,254,0.0,0.0,82,0.00,,SKC,0.00,VWS V14.01,2013-01-23 08:00:00,
2013-01-23 02:04:00,-13.3,-17.2,30.23,WSW,248,1.0,1.0,82,0.00,,SKC,0.00,VWS V14.01,2013-01-23 08:04:00,
2013-01-23 02:05:00,-13.3,-17.2,30.21,WSW,254,0.0,0.0,82,0.00,,SKC,0.00,VWS V14.01,2013-01-23 08:05:00,
2013-01-23 02:09:00,-13.3,-17.2,30.23,WSW,240,0.0,0.0,82,0.00,,SKC,0.00,VWS V14.01,2013-01-23 08:09:00,
2013-01-23 02:14:00,-13.3,-17.2,30.23,WSW,240,0.0,0.0,82,0.00,,SKC,0.00,VWS V14.01,2013-01-23 08:14:00,
2013-01-23 02:15:00,-13.1,-17.0,30.20,West,265,0.0,1.0,82,0.00,,SKC,0.00,VWS V14.01,2013-01-23 08:15:00,
2013-01-23 02:19:00,-13.3,-17.5,30.22,WSW,239,0.0,0.0,81,0.00,,SKC,0.00,VWS V14.01,2013-01-23 08:19:00,
2013-01-23 02:20:00,-13.0,-16.9,30.20,WNW,287,0.0,0.0,82,0.00,,SKC,0.00,VWS V14.01,2013-01-23 08:20:00,
2013-01-23 02:24:00,-13.4,-17.3,30.22,WSW,240,0.0,0.0,82,0.00,,SKC,0.00,VWS V14.01,2013-01-23 08:24:00,
2013-01-23 02:25:00,-12.9,-16.8,30.20,WNW,294,0.0,2.0,82,0.00,,SKC,0.00,VWS V14.01,2013-01-23 08:25:00,
2013-01-23 02:29:00,-13.4,-17.3,30.22,WSW,240,0.0,0.0,82,0.00,,SKC,0.00,VWS V14.01,2013-01-23 08:29:00,
2013-01-23 02:30:00,-12.7,-16.6,30.21,West,275,0.0,1.0,82,0.00,,SKC,0.00,VWS V14.01,2013-01-23 08:30:00,
2013-01-23 02:34:00,-13.4,-17.3,30.22,WSW,240,0.0,0.0,82,0.00,,SKC,0.00,VWS V14.01,2013-01-23 08:34:00,
2013-01-23 02:35:00,-12.6,-16.5,30.21,West,275,0.0,1.0,82,0.00,,SKC,0.00,VWS V14.01,2013-01-23 08:35:00,
2013-01-23 02:39:00,-13.5,-17.4,30.22,WSW,240,0.0,0.0,82,0.00,,SKC,0.00,VWS V14.01,2013-01-23 08:39:00,
2013-01-23 02:44:00,-13.4,-17.3,30.22,WSW,239,0.0,0.0,82,0.00,,SKC,0.00,VWS V14.01,2013-01-23 08:44:00,
2013-01-23 02:45:00,-12.9,-16.8,30.20,West,275,0.0,0.0,82,0.00,,SKC,0.00,VWS V14.01,2013-01-23 08:45:00,
2013-01-23 02:49:00,-13.4,-17.3,30.22,WSW,240,0.0,0.0,82,0.00,,SKC,0.00,VWS V14.01,2013-01-23 08:49:00,
2013-01-23 02:50:00,-13.0,-16.9,30.20,West,275,0.0,0.0,82,0.00,,SKC,0.00,VWS V14.01,2013-01-23 08:50:00,
2013-01-23 02:54:00,-13.4,-17.3,30.22,WSW,240,0.0,0.0,82,0.00,,SKC,0.00,VWS V14.01,2013-01-23 08:54:00,
2013-01-23 02:55:00,-13.0,-16.7,30.20,West,275,0.0,0.0,83,0.00,,SKC,0.00,VWS V14.01,2013-01-23 08:55:00,
2013-01-23 02:59:00,-13.4,-17.3,30.22,WSW,251,0.0,0.0,82,0.00,,SKC,0.00,VWS V14.01,2013-01-23 08:59:00,
2013-01-23 03:00:00,-13.1,-16.8,30.20,West,269,0.0,0.0,83,0.00,,SKC,0.00,VWS V14.01,2013-01-23 09:00:00,
2013-01-23 03:04:00,-13.3,-17.2,30.21,WSW,254,0.0,0.0,82,0.00,,SKC,0.00,VWS V14.01,2013-01-23 09:04:00,
2013-01-23 03:05:00,-13.1,-16.8,30.20,West,269,0.0,0.0,83,0.00,,SKC,0.00,VWS V14.01,2013-01-23 09:05:00,
2013-01-23 03:09:00,-13.2,-17.1,30.21,WSW,256,0.0,1.0,82,0.00,,SKC,0.00,VWS V14.01,2013-01-23 09:09:00,
2013-01-23 03:10:00,-13.1,-16.8,30.20,West,269,0.0,0.0,83,0.00,,SKC,0.00,VWS V14.01,2013-01-23 09:10:00,
2013-01-23 03:14:00,-13.1,-17.0,30.21,West,265,0.0,1.0,82,0.00,,SKC,0.00,VWS V14.01,2013-01-23 09:14:00,
2013-01-23 03:15:00,-13.1,-16.8,30.19,West,268,0.0,1.0,83,0.00,,SKC,0.00,VWS V14.01,2013-01-23 09:15:00,
2013-01-23 03:19:00,-13.0,-16.9,30.20,West,265,0.0,0.0,82,0.00,,SKC,0.00,VWS V14.01,2013-01-23 09:19:00,
2013-01-23 03:20:00,-13.2,-16.9,30.19,West,268,0.0,0.0,83,0.00,,SKC,0.00,VWS V14.01,2013-01-23 09:20:00,
2013-01-23 03:24:00,-13.0,-16.9,30.20,West,279,1.0,1.0,82,0.00,,SKC,0.00,VWS V14.01,2013-01-23 09:24:00,
2013-01-23 03:25:00,-13.4,-17.1,30.19,West,269,0.0,0.0,83,0.00,,SKC,0.00,VWS V14.01,2013-01-23 09:25:00,
2013-01-23 03:29:00,-12.8,-16.7,30.20,West,275,0.0,1.0,82,0.00,,SKC,0.00,VWS V14.01,2013-01-23 09:29:00,
2013-01-23 03:30:00,-13.4,-17.1,30.19,West,268,0.0,0.0,83,0.00,,SKC,0.00,VWS V14.01,2013-01-23 09:30:00,
2013-01-23 03:34:00,-12.6,-16.5,30.21,West,274,0.0,1.0,82,0.00,,SKC,0.00,VWS V14.01,2013-01-23 09:34:00,
2013-01-23 03:35:00,-13.4,-17.1,30.19,West,268,0.0,0.0,83,0.00,,SKC,0.00,VWS V14.01,2013-01-23 09:35:00,
2013-01-23 03:39:00,-12.5,-16.4,30.21,West,274,0.0,0.0,82,0.00,,SKC,0.00,VWS V14.01,2013-01-23 09:39:00,
2013-01-23 03:40:00,-13.4,-17.1,30.19,West,267,0.0,1.0,83,0.00,,SKC,0.00,VWS V14.01,2013-01-23 09:40:00,
2013-01-23 03:44:00,-12.7,-16.6,30.21,West,275,0.0,0.0,82,0.00,,SKC,0.00,VWS V14.01,2013-01-23 09:44:00,
2013-01-23 03:49:00,-13.0,-16.9,30.20,West,275,0.0,0.0,82,0.00,,SKC,0.00,VWS V14.01,2013-01-23 09:49:00,
2013-01-23 03:54:00,-13.0,-16.9,30.20,West,275,0.0,0.0,82,0.00,,SKC,0.00,VWS V14.01,2013-01-23 09:54:00,
2013-01-23 03:55:00,-13.4,-16.8,30.19,West,259,0.0,1.0,84,0.00,,SKC,0.00,VWS V14.01,2013-01-23 09:55:00,
2013-01-23 03:59:00,-13.1,-16.8,30.20,West,274,0.0,0.0,83,0.00,,SKC,0.00,VWS V14.01,2013-01-23 09:59:00,
2013-01-23 04:00:00,-13.4,-16.8,30.18,West,259,0.0,0.0,84,0.00,,SKC,0.00,VWS V14.01,2013-01-23 10:00:00,
2013-01-23 04:05:00,-13.1,-16.8,30.20,West,269,0.0,0.0,83,0.00,,SKC,0.00,VWS V14.01,2013-01-23 10:05:00,
2013-01-23 04:10:00,-13.0,-16.7,30.20,West,269,0.0,0.0,83,0.00,,SKC,0.00,VWS V14.01,2013-01-23 10:10:00,
2013-01-23 04:15:00,-13.1,-16.8,30.20,West,269,0.0,0.0,83,0.00,,SKC,0.00,VWS V14.01,2013-01-23 10:15:00,
2013-01-23 04:20:00,-13.2,-16.9,30.19,West,267,0.0,0.0,83,0.00,,SKC,0.00,VWS V14.01,2013-01-23 10:20:00,
2013-01-23 04:25:00,-13.3,-17.0,30.19,West,267,0.0,0.0,83,0.00,,SKC,0.00,VWS V14.01,2013-01-23 10:25:00,
2013-01-23 04:30:00,-13.4,-17.1,30.19,West,268,0.0,0.0,83,0.00,,SKC,0.00,VWS V14.01,2013-01-23 10:30:00,
2013-01-23 04:35:00,-13.4,-17.1,30.19,West,268,0.0,0.0,83,0.00,,SKC,0.00,VWS V14.01,2013-01-23 10:35:00,
2013-01-23 04:40:00,-13.4,-16.8,30.19,West,268,0.0,0.0,84,0.00,,SKC,0.00,VWS V14.01,2013-01-23 10:40:00,
2013-01-23 04:45:00,-13.4,-16.8,30.19,West,268,0.0,0.0,84,0.00,,SKC,0.00,VWS V14.01,2013-01-23 10:45:00,
2013-01-23 04:50:00,-13.4,-16.8,30.19,West,268,0.0,1.0,84,0.00,,SKC,0.00,VWS V14.01,2013-01-23 10:50:00,
2013-01-23 04:55:00,-13.4,-17.1,30.19,West,260,0.0,1.0,83,0.00,,SKC,0.00,VWS V14.01,2013-01-23 10:55:00,
2013-01-23 05:00:00,-13.4,-16.8,30.19,West,259,0.0,0.0,84,0.00,,SKC,0.00,VWS V14.01,2013-01-23 11:00:00,
2013-01-23 05:05:00,-13.5,-17.2,30.18,West,260,0.0,0.0,83,0.00,,SKC,0.00,VWS V14.01,2013-01-23 11:05:00,
2013-01-23 05:10:00,-13.6,-17.3,30.18,West,260,0.0,0.0,83,0.00,,SKC,0.00,VWS V14.01,2013-01-23 11:10:00,
2013-01-23 05:15:00,-13.7,-17.4,30.18,West,259,0.0,0.0,83,0.00,,SKC,0.00,VWS V14.01,2013-01-23 11:15:00,
2013-01-23 05:20:00,-13.7,-17.4,30.19,West,260,0.0,0.0,83,0.00,,SKC,0.00,VWS V14.01,2013-01-23 11:20:00,
2013-01-23 05:25:00,-13.9,-17.6,30.19,West,260,0.0,0.0,83,0.00,,SKC,0.00,VWS V14.01,2013-01-23 11:25:00,
2013-01-23 05:30:00,-14.1,-17.8,30.19,West,260,0.0,0.0,83,0.00,,SKC,0.00,VWS V14.01,2013-01-23 11:30:00,
2013-01-23 05:35:00,-14.0,-17.4,30.18,West,260,0.0,1.0,84,0.00,,SKC,0.00,VWS V14.01,2013-01-23 11:35:00,
2013-01-23 05:40:00,-14.0,-17.4,30.18,West,260,0.0,1.0,84,0.00,,SKC,0.00,VWS V14.01,2013-01-23 11:40:00,
2013-01-23 05:45:00,-14.0,-17.4,30.18,West,260,0.0,0.0,84,0.00,,SKC,0.00,VWS V14.01,2013-01-23 11:45:00,
2013-01-23 05:50:00,-13.8,-17.2,30.18,West,260,0.0,1.0,84,0.00,,SKC,0.00,VWS V14.01,2013-01-23 11:50:00,
2013-01-23 05:55:00,-13.6,-17.0,30.18,WSW,254,1.0,1.0,84,0.00,,SKC,0.00,VWS V14.01,2013-01-23 11:55:00,
2013-01-23 06:00:00,-13.6,-17.0,30.18,WSW,254,0.0,1.0,84,0.00,,SKC,0.00,VWS V14.01,2013-01-23 12:00:00,
2013-01-23 06:05:00,-13.6,-17.3,30.18,WSW,249,0.0,1.0,83,0.00,,SKC,0.00,VWS V14.01,2013-01-23 12:05:00,
2013-01-23 06:10:00,-13.4,-17.1,30.18,WSW,249,0.0,1.0,83,0.00,,SKC,0.00,VWS V14.01,2013-01-23 12:10:00,
2013-01-23 06:15:00,-13.3,-17.0,30.18,SW,232,0.0,1.0,83,0.00,,SKC,0.00,VWS V14.01,2013-01-23 12:15:00,
2013-01-23 06:20:00,-13.1,-16.5,30.17,West,263,0.0,1.0,84,0.00,,SKC,0.00,VWS V14.01,2013-01-23 12:20:00,
2013-01-23 06:25:00,-12.8,-16.2,30.17,West,263,0.0,1.0,84,0.00,,SKC,0.00,VWS V14.01,2013-01-23 12:25:00,
2013-01-23 06:30:00,-12.5,-15.9,30.17,West,261,0.0,1.0,84,0.00,,SKC,0.00,VWS V14.01,2013-01-23 12:30:00,
2013-01-23 06:35:00,-12.2,-15.7,30.17,WSW,245,1.0,1.0,84,0.00,,SKC,0.00,VWS V14.01,2013-01-23 12:35:00,
2013-01-23 06:40:00,-11.9,-15.4,30.17,WSW,257,1.0,2.0,84,0.00,,SKC,0.00,VWS V14.01,2013-01-23 12:40:00,
2013-01-23 06:45:00,-11.6,-15.1,30.17,West,269,2.0,2.0,84,0.00,,SKC,0.00,VWS V14.01,2013-01-23 12:45:00,
2013-01-23 06:50:00,-11.3,-14.8,30.16,West,260,0.0,2.0,84,0.00,,SKC,0.00,VWS V14.01,2013-01-23 12:50:00,
2013-01-23 06:55:00,-11.1,-14.6,30.16,WSW,249,0.0,2.0,84,0.00,,SKC,0.00,VWS V14.01,2013-01-23 12:55:00,
2013-01-23 07:00:00,-8.2,-11.7,30.14,WSW,248,1.0,2.0,84,0.00,,SKC,0.00,VWS V14.01,2013-01-23 13:00:00,
2013-01-23 07:01:00,-10.8,-14.3,30.16,West,259,0.0,1.0,84,0.00,,SKC,0.00,VWS V14.01,2013-01-23 13:01:00,
2013-01-23 07:05:00,-7.9,-11.4,30.14,WSW,257,2.0,2.0,84,0.00,,SKC,0.00,VWS V14.01,2013-01-23 13:05:00,
2013-01-23 07:06:00,-10.6,-14.1,30.15,West,259,0.0,1.0,84,0.00,,SKC,0.00,VWS V14.01,2013-01-23 13:06:00,
2013-01-23 07:10:00,-7.6,-11.1,30.14,West,265,1.0,3.0,84,0.00,,SKC,0.00,VWS V14.01,2013-01-23 13:10:00,
2013-01-23 07:11:00,-10.3,-14.0,30.15,WSW,254,1.0,1.0,83,0.00,,SKC,0.00,VWS V14.01,2013-01-23 13:11:00,
2013-01-23 07:15:00,-7.2,-10.8,30.14,WSW,248,1.0,3.0,84,0.00,,SKC,0.00,VWS V14.01,2013-01-23 13:15:00,
2013-01-23 07:16:00,-10.1,-13.6,30.15,WSW,254,1.0,2.0,84,0.00,,SKC,0.00,VWS V14.01,2013-01-23 13:16:00,
2013-01-23 07:20:00,-6.9,-10.7,30.14,WSW,241,0.0,3.0,83,0.00,,SKC,0.00,VWS V14.01,2013-01-23 13:20:00,
2013-01-23 07:21:00,-9.9,-13.6,30.15,WNW,290,1.0,2.0,83,0.00,,SKC,0.00,VWS V14.01,2013-01-23 13:21:00,
2013-01-23 07:25:00,-6.7,-10.5,30.14,SW,227,0.0,3.0,83,0.00,,SKC,0.00,VWS V14.01,2013-01-23 13:25:00,
2013-01-23 07:26:00,-9.8,-13.5,30.15,SW,226,1.0,2.0,83,0.00,,SKC,0.00,VWS V14.01,2013-01-23 13:26:00,
2013-01-23 07:30:00,-6.4,-10.2,30.14,West,266,2.0,2.0,83,0.00,,SKC,0.00,VWS V14.01,2013-01-23 13:30:00,
2013-01-23 07:31:00,-9.6,-13.1,30.15,West,261,0.0,1.0,84,0.00,,SKC,0.00,VWS V14.01,2013-01-23 13:31:00,
2013-01-23 07:35:00,-6.1,-9.9,30.14,NW,311,4.0,4.0,83,0.00,,SKC,0.00,VWS V14.01,2013-01-23 13:35:00,
2013-01-23 07:36:00,-9.5,-13.2,30.15,West,261,1.0,1.0,83,0.00,,SKC,0.00,VWS V14.01,2013-01-23 13:36:00,
2013-01-23 07:40:00,-5.8,-9.6,30.14,WSW,253,2.0,6.0,83,0.00,,SKC,0.00,VWS V14.01,2013-01-23 13:40:00,
2013-01-23 07:41:00,-9.3,-12.8,30.15,West,261,0.0,0.0,84,0.00,,SKC,0.00,VWS V14.01,2013-01-23 13:41:00,
2013-01-23 07:45:00,-5.7,-9.8,30.14,WSW,256,2.0,4.0,82,0.00,,SKC,0.00,VWS V14.01,2013-01-23 13:45:00,
2013-01-23 07:46:00,-9.1,-12.6,30.15,SW,234,0.0,2.0,84,0.00,,SKC,0.00,VWS V14.01,2013-01-23 13:46:00,
2013-01-23 07:50:00,-5.4,-9.5,30.14,West,264,4.0,5.0,82,0.00,,SKC,0.00,VWS V14.01,2013-01-23 13:50:00,
2013-01-23 07:51:00,-8.8,-12.3,30.15,WSW,241,1.0,1.0,84,0.00,,SKC,0.00,VWS V14.01,2013-01-23 13:51:00,
2013-01-23 07:56:00,-8.6,-12.1,30.15,West,281,2.0,3.0,84,0.00,,SKC,0.00,VWS V14.01,2013-01-23 13:56:00,
2013-01-23 08:00:00,-5.0,-9.1,30.13,WSW,256,2.0,4.0,82,0.00,,SKC,0.00,VWS V14.01,2013-01-23 14:00:00,
2013-01-23 08:01:00,-8.3,-11.8,30.15,WSW,249,1.0,2.0,84,0.00,,SKC,0.00,VWS V14.01,2013-01-23 14:01:00,
2013-01-23 08:05:00,-4.7,-8.8,30.13,WSW,238,1.0,3.0,82,0.00,,SKC,0.00,VWS V14.01,2013-01-23 14:05:00,
2013-01-23 08:06:00,-8.0,-11.5,30.14,WSW,248,2.0,2.0,84,0.00,,SKC,0.00,VWS V14.01,2013-01-23 14:06:00,
2013-01-23 08:10:00,-4.5,-8.6,30.13,West,264,1.0,4.0,82,0.00,,SKC,0.00,VWS V14.01,2013-01-23 14:10:00,
2013-01-23 08:11:00,-7.6,-11.1,30.14,WSW,249,1.0,3.0,84,0.00,,SKC,0.00,VWS V14.01,2013-01-23 14:11:00,
2013-01-23 08:15:00,-4.3,-8.4,30.14,West,269,1.0,3.0,82,0.00,,SKC,0.00,VWS V14.01,2013-01-23 14:15:00,
2013-01-23 08:16:00,-7.3,-10.8,30.14,WSW,254,1.0,3.0,84,0.00,,SKC,0.00,VWS V14.01,2013-01-23 14:16:00,
2013-01-23 08:20:00,-4.0,-7.8,30.14,West,280,1.0,3.0,83,0.00,,SKC,0.00,VWS V14.01,2013-01-23 14:20:00,
2013-01-23 08:21:00,-7.0,-10.8,30.14,West,275,1.0,3.0,83,0.00,,SKC,0.00,VWS V14.01,2013-01-23 14:21:00,
2013-01-23 08:25:00,-3.8,-7.7,30.14,West,259,1.0,2.0,83,0.00,,SKC,0.00,VWS V14.01,2013-01-23 14:25:00,
2013-01-23 08:26:00,-6.8,-10.6,30.14,West,263,1.0,3.0,83,0.00,,SKC,0.00,VWS V14.01,2013-01-23 14:26:00,
2013-01-23 08:30:00,-3.5,-7.6,30.14,WSW,252,2.0,2.0,82,0.00,,SKC,0.00,VWS V14.01,2013-01-23 14:30:00,
2013-01-23 08:31:00,-6.5,-10.3,30.14,WSW,242,1.0,2.0,83,0.00,,SKC,0.00,VWS V14.01,2013-01-23 14:31:00,
2013-01-23 08:35:00,-3.2,-7.3,30.14,WSW,246,1.0,3.0,82,0.00,,SKC,0.00,VWS V14.01,2013-01-23 14:35:00,
2013-01-23 08:36:00,-6.2,-10.0,30.14,WSW,253,1.0,3.0,83,0.00,,SKC,0.00,VWS V14.01,2013-01-23 14:36:00,
2013-01-23 08:40:00,-3.0,-7.1,30.14,West,263,1.0,6.0,82,0.00,,SKC,0.00,VWS V14.01,2013-01-23 14:40:00,
2013-01-23 08:41:00,-5.8,-9.6,30.14,SSW,211,2.0,6.0,83,0.00,,SKC,0.00,VWS V14.01,2013-01-23 14:41:00,
2013-01-23 08:45:00,-2.6,-6.7,30.14,WSW,240,1.0,4.0,82,0.00,,SKC,0.00,VWS V14.01,2013-01-23 14:45:00,
2013-01-23 08:46:00,-5.7,-9.8,30.14,West,267,1.0,4.0,82,0.00,,SKC,0.00,VWS V14.01,2013-01-23 14:46:00,
2013-01-23 08:51:00,-5.5,-9.6,30.14,WNW,286,3.0,5.0,82,0.00,,SKC,0.00,VWS V14.01,2013-01-23 14:51:00,
2013-01-23 08:55:00,-2.3,-6.7,30.14,WSW,257,1.0,3.0,81,0.00,,SKC,0.00,VWS V14.01,2013-01-23 14:55:00,
2013-01-23 08:56:00,-5.3,-9.4,30.14,West,272,0.0,4.0,82,0.00,,SKC,0.00,VWS V14.01,2013-01-23 14:56:00,
2013-01-23 09:00:00,-1.9,-6.3,30.14,WNW,288,3.0,3.0,81,0.00,,SKC,0.00,VWS V14.01,2013-01-23 15:00:00,
2013-01-23 09:01:00,-5.0,-9.1,30.13,WSW,257,1.0,4.0,82,0.00,,SKC,0.00,VWS V14.01,2013-01-23 15:01:00,
2013-01-23 09:05:00,-1.6,-6.0,30.14,WSW,250,0.0,4.0,81,0.00,,SKC,0.00,VWS V14.01,2013-01-23 15:05:00,
2013-01-23 09:06:00,-4.8,-8.9,30.13,WSW,256,2.0,3.0,82,0.00,,SKC,0.00,VWS V14.01,2013-01-23 15:06:00,
2013-01-23 09:11:00,-4.6,-8.7,30.13,WNW,294,2.0,4.0,82,0.00,,SKC,0.00,VWS V14.01,2013-01-23 15:11:00,
2013-01-23 09:16:00,-4.3,-8.4,30.14,WSW,256,2.0,3.0,82,0.00,,SKC,0.00,VWS V14.01,2013-01-23 15:16:00,
2013-01-23 09:20:00,-0.7,-5.1,30.13,West,263,3.0,4.0,81,0.00,,SKC,0.00,VWS V14.01,2013-01-23 15:20:00,
2013-01-23 09:21:00,-4.1,-7.9,30.14,West,279,1.0,3.0,83,0.00,,SKC,0.00,VWS V14.01,2013-01-23 15:21:00,
2013-01-23 09:25:00,-0.4,-4.8,30.13,WSW,252,1.0,4.0,81,0.00,,SKC,0.00,VWS V14.01,2013-01-23 15:25:00,
2013-01-23 09:27:00,-3.8,-7.7,30.14,WNW,294,2.0,2.0,83,0.00,,SKC,0.00,VWS V14.01,2013-01-23 15:27:00,
2013-01-23 09:30:00,-0.1,-4.5,30.13,SSW,206,1.0,5.0,81,0.00,,SKC,0.00,VWS V14.01,2013-01-23 15:30:00,
2013-01-23 09:31:00,-3.5,-7.4,30.14,SSW,210,1.0,2.0,83,0.00,,SKC,0.00,VWS V14.01,2013-01-23 15:31:00,
2013-01-23 09:37:00,-3.3,-7.4,30.14,WSW,245,1.0,3.0,82,0.00,,SKC,0.00,VWS V14.01,2013-01-23 15:37:00,
2013-01-23 09:40:00,0.6,-4.1,30.13,West,280,2.0,4.0,80,0.00,,SKC,0.00,VWS V14.01,2013-01-23 15:40:00,
2013-01-23 09:42:00,-2.9,-7.0,30.14,WSW,249,2.0,6.0,82,0.00,,SKC,0.00,VWS V14.01,2013-01-23 15:42:00,
2013-01-23 09:45:00,1.1,-3.6,30.13,WSW,241,2.0,4.0,80,0.00,,SKC,0.00,VWS V14.01,2013-01-23 15:45:00,
2013-01-23 09:47:00,-2.6,-6.7,30.14,WSW,255,3.0,4.0,82,0.00,,SKC,0.00,VWS V14.01,2013-01-23 15:47:00,
2013-01-23 09:50:00,1.4,-3.6,30.13,West,259,2.0,5.0,79,0.00,,SKC,0.00,VWS V14.01,2013-01-23 15:50:00,
2013-01-23 09:52:00,-2.5,-6.9,30.14,West,281,3.0,6.0,81,0.00,,SKC,0.00,VWS V14.01,2013-01-23 15:52:00,
2013-01-23 09:55:00,1.8,-3.2,30.13,SW,227,2.0,2.0,79,0.00,,SKC,0.00,VWS V14.01,2013-01-23 15:55:00,
2013-01-23 09:57:00,-2.3,-6.7,30.14,WSW,248,1.0,3.0,81,0.00,,SKC,0.00,VWS V14.01,2013-01-23 15:57:00,
2013-01-23 10:00:00,2.5,-2.5,30.12,West,261,1.0,4.0,79,0.00,,SKC,0.00,VWS V14.01,2013-01-23 16:00:00,
2013-01-23 10:02:00,-2.0,-6.4,30.14,West,268,2.0,3.0,81,0.00,,SKC,0.00,VWS V14.01,2013-01-23 16:02:00,
2013-01-23 10:05:00,3.0,-2.3,30.12,West,265,5.0,6.0,78,0.00,,SKC,0.00,VWS V14.01,2013-01-23 16:05:00,
2013-01-23 10:07:00,-1.7,-6.1,30.14,WSW,250,1.0,4.0,81,0.00,,SKC,0.00,VWS V14.01,2013-01-23 16:07:00,
2013-01-23 10:10:00,3.2,-2.4,30.12,West,280,2.0,8.0,77,0.00,,SKC,0.00,VWS V14.01,2013-01-23 16:10:00,
2013-01-23 10:12:00,-1.3,-5.7,30.14,WSW,252,1.0,3.0,81,0.00,,SKC,0.00,VWS V14.01,2013-01-23 16:12:00,
2013-01-23 10:15:00,3.6,-2.0,30.11,West,260,3.0,5.0,77,0.00,,SKC,0.00,VWS V14.01,2013-01-23 16:15:00,
2013-01-23 10:17:00,-1.1,-5.5,30.13,WSW,257,2.0,5.0,81,0.00,,SKC,0.00,VWS V14.01,2013-01-23 16:17:00,
2013-01-23 10:20:00,4.1,-1.5,30.11,WSW,256,2.0,5.0,77,0.00,,SKC,0.00,VWS V14.01,2013-01-23 16:20:00,
2013-01-23 10:22:00,-0.7,-5.1,30.13,West,267,3.0,4.0,81,0.00,,SKC,0.00,VWS V14.01,2013-01-23 16:22:00,
2013-01-23 10:25:00,4.4,-1.5,30.11,WNW,296,1.0,7.0,76,0.00,,SKC,0.00,VWS V14.01,2013-01-23 16:25:00,
2013-01-23 10:27:00,-0.4,-4.8,30.13,SW,230,1.0,4.0,81,0.00,,SKC,0.00,VWS V14.01,2013-01-23 16:27:00,
2013-01-23 10:30:00,4.7,-1.5,30.10,West,269,1.0,6.0,75,0.00,,SKC,0.00,VWS V14.01,2013-01-23 16:30:00,
2013-01-23 10:32:00,-0.1,-4.5,30.13,SSW,206,2.0,5.0,81,0.00,,SKC,0.00,VWS V14.01,2013-01-23 16:32:00,
2013-01-23 10:37:00,0.3,-4.1,30.13,West,259,2.0,5.0,81,0.00,,SKC,0.00,VWS V14.01,2013-01-23 16:37:00,
2013-01-23 10:40:00,5.0,-1.5,30.10,WNW,290,5.0,6.0,74,0.00,,SKC,0.00,VWS V14.01,2013-01-23 16:40:00,
2013-01-23 10:42:00,0.6,-4.1,30.13,WNW,286,2.0,4.0,80,0.00,,SKC,0.00,VWS V14.01,2013-01-23 16:42:00,
2013-01-23 10:45:00,4.9,-1.3,30.10,WSW,252,2.0,7.0,75,0.00,,SKC,0.00,VWS V14.01,2013-01-23 16:45:00,
2013-01-23 10:47:00,1.1,-3.6,30.13,West,277,2.0,4.0,80,0.00,,SKC,0.00,VWS V14.01,2013-01-23 16:47:00,
2013-01-23 10:50:00,4.7,-1.5,30.10,West,259,3.0,9.0,75,0.00,,SKC,0.00,VWS V14.01,2013-01-23 16:50:00,
2013-01-23 10:52:00,1.4,-3.6,30.13,SSW,201,2.0,5.0,79,0.00,,SKC,0.00,VWS V14.01,2013-01-23 16:52:00,
2013-01-23 10:55:00,4.7,-1.5,30.10,WNW,283,4.0,10.0,75,0.00,,SKC,0.00,VWS V14.01,2013-01-23 16:55:00,
2013-01-23 10:57:00,1.8,-3.2,30.13,SW,229,2.0,2.0,79,0.00,,SKC,0.00,VWS V14.01,2013-01-23 16:57:00,
2013-01-23 11:00:00,4.7,-1.5,30.09,West,267,3.0,7.0,75,0.00,,SKC,0.00,VWS V14.01,2013-01-23 17:00:00,
2013-01-23 11:02:00,2.5,-2.5,30.12,West,261,0.0,4.0,79,0.00,,SKC,0.00,VWS V14.01,2013-01-23 17:02:00,
2013-01-23 11:07:00,3.0,-2.3,30.12,West,265,5.0,6.0,78,0.00,,SKC,0.00,VWS V14.01,2013-01-23 17:07:00,
2013-01-23 11:10:00,5.1,-1.1,30.09,West,281,4.0,6.0,75,0.00,,SKC,0.00,VWS V14.01,2013-01-23 17:10:00,
2013-01-23 11:12:00,3.2,-2.4,30.12,West,280,2.0,8.0,77,0.00,,SKC,0.00,VWS V14.01,2013-01-23 17:12:00,
2013-01-23 11:15:00,5.3,-0.9,30.08,West,262,2.0,7.0,75,0.00,,SKC,0.00,VWS V14.01,2013-01-23 17:15:00,
2013-01-23 11:17:00,3.6,-2.0,30.11,West,260,3.0,3.0,77,0.00,,SKC,0.00,VWS V14.01,2013-01-23 17:17:00,
2013-01-23 11:20:00,5.9,-0.6,30.08,WSW,252,3.0,6.0,74,0.00,,SKC,0.00,VWS V14.01,2013-01-23 17:20:00,
2013-01-23 11:22:00,4.1,-1.5,30.11,WSW,255,1.0,2.0,77,0.00,,SKC,0.00,VWS V14.01,2013-01-23 17:22:00,
2013-01-23 11:25:00,6.3,-0.2,30.08,WNW,291,3.0,6.0,74,0.00,,SKC,0.00,VWS V14.01,2013-01-23 17:25:00,
2013-01-23 11:27:00,4.5,-1.4,30.11,West,276,1.0,1.0,76,0.00,,SKC,0.00,VWS V14.01,2013-01-23 17:27:00,
2013-01-23 11:30:00,6.7,-0.1,30.07,West,265,4.0,6.0,73,0.00,,SKC,0.00,VWS V14.01,2013-01-23 17:30:00,
2013-01-23 11:32:00,4.7,-1.5,30.10,SSW,194,2.0,2.0,75,0.00,,SKC,0.00,VWS V14.01,2013-01-23 17:32:00,
2013-01-23 11:37:00,4.9,-1.3,30.10,WSW,250,1.0,2.0,75,0.00,,SKC,0.00,VWS V14.01,2013-01-23 17:37:00,
2013-01-23 11:40:00,7.1,0.3,30.07,West,281,3.0,6.0,73,0.00,,SKC,0.00,VWS V14.01,2013-01-23 17:40:00,
2013-01-23 11:42:00,5.0,-1.5,30.10,West,267,4.0,5.0,74,0.00,,SKC,0.00,VWS V14.01,2013-01-23 17:42:00,
2013-01-23 11:45:00,7.2,0.1,30.06,WSW,248,1.0,6.0,72,0.00,,SKC,0.00,VWS V14.01,2013-01-23 17:45:00,
2013-01-23 11:47:00,4.9,-1.3,30.10,SSW,212,3.0,4.0,75,0.00,,SKC,0.00,VWS V14.01,2013-01-23 17:47:00,
2013-01-23 11:50:00,7.4,0.3,30.06,WSW,248,0.0,7.0,72,0.00,,SKC,0.00,VWS V14.01,2013-01-23 17:50:00,
2013-01-23 11:52:00,4.7,-1.5,30.10,WSW,241,4.0,4.0,75,0.00,,SKC,0.00,VWS V14.01,2013-01-23 17:52:00,
2013-01-23 11:57:00,4.7,-1.5,30.10,WNW,291,3.0,5.0,75,0.00,,SKC,0.00,VWS V14.01,2013-01-23 17:57:00,
2013-01-23 12:00:00,7.8,0.4,30.06,WNW,299,4.0,6.0,71,0.00,,SKC,0.00,VWS V14.01,2013-01-23 18:00:00,
2013-01-23 12:02:00,4.7,-1.5,30.09,West,276,5.0,5.0,75,0.00,,SKC,0.00,VWS V14.01,2013-01-23 18:02:00,
2013-01-23 12:05:00,7.8,0.4,30.06,WNW,300,1.0,8.0,71,0.00,,SKC,0.00,VWS V14.01,2013-01-23 18:05:00,
2013-01-23 12:07:00,5.0,-1.2,30.09,WSW,240,3.0,5.0,75,0.00,,SKC,0.00,VWS V14.01,2013-01-23 18:07:00,
2013-01-23 12:10:00,7.7,0.3,30.06,WNW,290,3.0,7.0,71,0.00,,SKC,0.00,VWS V14.01,2013-01-23 18:10:00,
2013-01-23 12:12:00,5.1,-1.1,30.09,West,259,2.0,5.0,75,0.00,,SKC,0.00,VWS V14.01,2013-01-23 18:12:00,
2013-01-23 12:15:00,8.0,0.9,30.06,West,273,2.0,5.0,72,0.00,,SKC,0.00,VWS V14.01,2013-01-23 18:15:00,
2013-01-23 12:17:00,5.4,-0.8,30.08,SW,223,1.0,2.0,75,0.00,,SKC,0.00,VWS V14.01,2013-01-23 18:17:00,
2013-01-23 12:20:00,8.1,1.0,30.06,West,267,1.0,6.0,72,0.00,,SKC,0.00,VWS V14.01,2013-01-23 18:20:00,
2013-01-23 12:22:00,5.9,-0.6,30.08,WSW,255,2.0,3.0,74,0.00,,SKC,0.00,VWS V14.01,2013-01-23 18:22:00,
2013-01-23 12:25:00,8.2,1.0,30.06,SSW,210,2.0,6.0,72,0.00,,SKC,0.00,VWS V14.01,2013-01-23 18:25:00,
2013-01-23 12:27:00,6.3,-0.2,30.08,West,275,1.0,3.0,74,0.00,,SKC,0.00,VWS V14.01,2013-01-23 18:27:00,
2013-01-23 12:30:00,8.3,1.1,30.06,WNW,289,3.0,7.0,72,0.00,,SKC,0.00,VWS V14.01,2013-01-23 18:30:00,
2013-01-23 12:32:00,6.7,-0.1,30.07,WNW,286,4.0,5.0,73,0.00,,SKC,0.00,VWS V14.01,2013-01-23 18:32:00,
2013-01-23 12:35:00,8.0,0.9,30.06,West,269,2.0,7.0,72,0.00,,SKC,0.00,VWS V14.01,2013-01-23 18:35:00,
2013-01-23 12:37:00,7.0,0.5,30.07,West,279,2.0,5.0,74,0.00,,SKC,0.00,VWS V14.01,2013-01-23 18:37:00,
2013-01-23 12:40:00,7.9,1.6,30.06,West,280,3.0,6.0,75,0.00,,SKC,0.00,VWS V14.01,2013-01-23 18:40:00,
2013-01-23 12:42:00,7.1,0.3,30.07,WNW,293,5.0,5.0,73,0.00,,SKC,0.00,VWS V14.01,2013-01-23 18:42:00,
2013-01-23 12:45:00,7.8,1.8,30.06,West,259,3.0,5.0,76,0.00,,SKC,0.00,VWS V14.01,2013-01-23 18:45:00,
2013-01-23 12:47:00,7.2,0.1,30.06,WSW,248,1.0,1.0,72,0.00,,SKC,0.00,VWS V14.01,2013-01-23 18:47:00,
2013-01-23 12:50:00,7.7,1.7,30.06,West,265,2.0,6.0,76,0.00,,SKC,0.00,VWS V14.01,2013-01-23 18:50:00,
2013-01-23 12:53:00,7.4,0.3,30.06,WSW,256,1.0,1.0,72,0.00,,SKC,0.00,VWS V14.01,2013-01-23 18:53:00,
2013-01-23 12:55:00,7.8,2.1,30.06,WNW,285,3.0,5.0,77,0.00,,SKC,0.00,VWS V14.01,2013-01-23 18:55:00,
2013-01-23 12:58:00,7.8,0.4,30.06,WSW,250,6.0,6.0,71,0.00,,SKC,0.00,VWS V14.01,2013-01-23 18:58:00,
2013-01-23 13:00:00,7.7,2.3,30.06,WNW,290,2.0,5.0,78,0.00,,SKC,0.00,VWS V14.01,2013-01-23 19:00:00,
2013-01-23 13:03:00,7.8,0.4,30.06,West,279,4.0,6.0,71,0.00,,SKC,0.00,VWS V14.01,2013-01-23 19:03:00,
2013-01-23 13:08:00,7.8,0.4,30.06,West,281,4.0,4.0,71,0.00,,SKC,0.00,VWS V14.01,2013-01-23 19:08:00,
2013-01-23 13:10:00,8.0,2.3,30.06,WSW,256,2.0,5.0,77,0.00,,SKC,0.00,VWS V14.01,2013-01-23 19:10:00,
2013-01-23 13:13:00,7.7,0.3,30.06,WSW,250,1.0,3.0,71,0.00,,SKC,0.00,VWS V14.01,2013-01-23 19:13:00,
2013-01-23 13:15:00,8.3,2.3,30.07,WSW,250,3.0,6.0,76,0.00,,SKC,0.00,VWS V14.01,2013-01-23 19:15:00,
2013-01-23 13:18:00,8.0,0.9,30.06,West,275,3.0,6.0,72,0.00,,SKC,0.00,VWS V14.01,2013-01-23 19:18:00,
2013-01-23 13:20:00,8.1,2.1,30.07,West,279,4.0,8.0,76,0.00,,SKC,0.00,VWS V14.01,2013-01-23 19:20:00,
2013-01-23 13:23:00,8.1,1.0,30.06,WSW,242,3.0,3.0,72,0.00,,SKC,0.00,VWS V14.01,2013-01-23 19:23:00,
2013-01-23 13:28:00,8.3,1.1,30.06,WNW,300,4.0,7.0,72,0.00,,SKC,0.00,VWS V14.01,2013-01-23 19:28:00,
2013-01-23 13:30:00,8.1,2.1,30.07,NW,313,4.0,6.0,76,0.00,,SKC,0.00,VWS V14.01,2013-01-23 19:30:00,
2013-01-23 13:33:00,8.3,1.1,30.06,WNW,282,3.0,4.0,72,0.00,,SKC,0.00,VWS V14.01,2013-01-23 19:33:00,
2013-01-23 13:35:00,7.9,1.9,30.07,WNW,288,1.0,6.0,76,0.00,,SKC,0.00,VWS V14.01,2013-01-23 19:35:00,
2013-01-23 13:38:00,8.0,1.2,30.06,WSW,254,3.0,4.0,73,0.00,,SKC,0.00,VWS V14.01,2013-01-23 19:38:00,
2013-01-23 13:43:00,7.9,1.6,30.06,West,267,3.0,5.0,75,0.00,,SKC,0.00,VWS V14.01,2013-01-23 19:43:00,
2013-01-23 13:45:00,7.9,2.5,30.08,West,260,1.0,6.0,78,0.00,,SKC,0.00,VWS V14.01,2013-01-23 19:45:00,
2013-01-23 13:48:00,7.7,1.7,30.06,WNW,289,3.0,3.0,76,0.00,,SKC,0.00,VWS V14.01,2013-01-23 19:48:00,
2013-01-23 13:50:00,7.9,3.0,30.08,West,279,0.0,3.0,80,0.00,,SKC,0.00,VWS V14.01,2013-01-23 19:50:00,
2013-01-23 13:53:00,7.7,1.7,30.06,WNW,286,2.0,3.0,76,0.00,,SKC,0.00,VWS V14.01,2013-01-23 19:53:00,
2013-01-23 13:55:00,7.9,3.3,30.08,WSW,257,1.0,4.0,81,0.00,,SKC,0.00,VWS V14.01,2013-01-23 19:55:00,
2013-01-23 13:58:00,7.7,2.3,30.06,WSW,256,1.0,3.0,78,0.00,,SKC,0.00,VWS V14.01,2013-01-23 19:58:00,
2013-01-23 14:00:00,7.8,2.9,30.09,NNW,327,1.0,6.0,80,0.00,,SKC,0.00,VWS V14.01,2013-01-23 20:00:00,
2013-01-23 14:03:00,7.8,2.4,30.06,West,281,3.0,3.0,78,0.00,,SKC,0.00,VWS V14.01,2013-01-23 20:03:00,
2013-01-23 14:08:00,7.8,2.7,30.06,West,265,2.0,3.0,79,0.00,,SKC,0.00,VWS V14.01,2013-01-23 20:08:00,
2013-01-23 14:13:00,8.0,2.3,30.06,West,274,1.0,2.0,77,0.00,,SKC,0.00,VWS V14.01,2013-01-23 20:13:00,
2013-01-23 14:15:00,7.2,3.1,30.10,WNW,291,4.0,8.0,83,0.00,,SKC,0.00,VWS V14.01,2013-01-23 20:15:00,
2013-01-23 14:18:00,8.2,2.2,30.07,NW,315,6.0,8.0,76,0.00,,SKC,0.00,VWS V14.01,2013-01-23 20:18:00,
2013-01-23 14:23:00,8.1,1.8,30.07,WSW,257,4.0,5.0,75,0.00,,SKC,0.00,VWS V14.01,2013-01-23 20:23:00,
2013-01-23 14:28:00,8.2,2.2,30.07,WNW,283,3.0,3.0,76,0.00,,SKC,0.00,VWS V14.01,2013-01-23 20:28:00,
2013-01-23 14:30:00,6.1,1.8,30.12,NW,310,1.0,7.0,82,0.00,,SKC,0.00,VWS V14.01,2013-01-23 20:30:00,
2013-01-23 14:33:00,8.1,2.1,30.07,West,279,1.0,4.0,76,0.00,,SKC,0.00,VWS V14.01,2013-01-23 20:33:00,
2013-01-23 14:35:00,6.1,1.0,30.12,SW,232,4.0,7.0,79,0.00,,SKC,0.00,VWS V14.01,2013-01-23 20:35:00,
2013-01-23 14:38:00,7.9,1.9,30.07,NW,304,2.0,5.0,76,0.00,,SKC,0.00,VWS V14.01,2013-01-23 20:38:00,
2013-01-23 14:43:00,7.9,2.5,30.07,WNW,289,5.0,5.0,78,0.00,,SKC,0.00,VWS V14.01,2013-01-23 20:43:00,
2013-01-23 14:45:00,5.9,-1.2,30.14,WNW,291,3.0,8.0,72,0.00,,SKC,0.00,VWS V14.01,2013-01-23 20:45:00,
2013-01-23 14:48:00,7.8,2.7,30.08,West,273,1.0,3.0,79,0.00,,SKC,0.00,VWS V14.01,2013-01-23 20:48:00,
2013-01-23 14:50:00,5.8,-1.9,30.14,WNW,289,6.0,11.0,70,0.00,,SKC,0.00,VWS V14.01,2013-01-23 20:50:00,
2013-01-23 14:53:00,7.9,3.0,30.08,West,279,0.0,0.0,80,0.00,,SKC,0.00,VWS V14.01,2013-01-23 20:53:00,
2013-01-23 14:58:00,7.9,3.3,30.08,West,277,1.0,1.0,81,0.00,,SKC,0.00,VWS V14.01,2013-01-23 20:58:00,
2013-01-23 15:00:00,5.6,-2.0,30.15,WNW,292,1.0,6.0,70,0.00,,SKC,0.00,VWS V14.01,2013-01-23 21:00:00,
2013-01-23 15:03:00,7.8,2.9,30.09,NNW,340,1.0,2.0,80,0.00,,SKC,0.00,VWS V14.01,2013-01-23 21:03:00,
2013-01-23 15:05:00,5.5,-1.5,30.15,WSW,244,3.0,8.0,72,0.00,,SKC,0.00,VWS V14.01,2013-01-23 21:05:00,
2013-01-23 15:08:00,7.8,2.7,30.09,West,280,1.0,3.0,79,0.00,,SKC,0.00,VWS V14.01,2013-01-23 21:08:00,
2013-01-23 15:10:00,5.5,-1.3,30.15,West,279,4.0,6.0,73,0.00,,SKC,0.00,VWS V14.01,2013-01-23 21:10:00,
2013-01-23 15:13:00,7.6,3.0,30.09,West,281,6.0,8.0,81,0.00,,SKC,0.00,VWS V14.01,2013-01-23 21:13:00,
2013-01-23 15:15:00,5.4,-1.4,30.16,WNW,283,3.0,6.0,73,0.00,,SKC,0.00,VWS V14.01,2013-01-23 21:15:00,
2013-01-23 15:18:00,7.1,3.0,30.10,NW,306,4.0,10.0,83,0.00,,SKC,0.00,VWS V14.01,2013-01-23 21:18:00,
2013-01-23 15:20:00,5.5,-1.5,30.16,NW,309,0.0,8.0,72,0.00,,SKC,0.00,VWS V14.01,2013-01-23 21:20:00,
2013-01-23 15:23:00,6.6,2.8,30.10,West,271,7.0,8.0,84,0.00,,SKC,0.00,VWS V14.01,2013-01-23 21:23:00,
2013-01-23 15:25:00,5.4,-1.6,30.16,West,274,3.0,7.0,72,0.00,,SKC,0.00,VWS V14.01,2013-01-23 21:25:00,
2013-01-23 15:28:00,6.2,2.4,30.10,WSW,241,1.0,4.0,84,0.00,,SKC,0.00,VWS V14.01,2013-01-23 21:28:00,
2013-01-23 15:30:00,5.3,-1.8,30.17,West,280,2.0,9.0,72,0.00,,SKC,0.00,VWS V14.01,2013-01-23 21:30:00,
2013-01-23 15:33:00,6.1,1.5,30.12,WNW,286,2.0,3.0,81,0.00,,SKC,0.00,VWS V14.01,2013-01-23 21:33:00,
2013-01-23 15:35:00,5.0,-2.0,30.17,WNW,291,2.0,4.0,72,0.00,,SKC,0.00,VWS V14.01,2013-01-23 21:35:00,
2013-01-23 15:38:00,6.1,1.0,30.12,WSW,252,5.0,7.0,79,0.00,,SKC,0.00,VWS V14.01,2013-01-23 21:38:00,
2013-01-23 15:40:00,4.8,-2.2,30.17,WNW,298,3.0,5.0,72,0.00,,SKC,0.00,VWS V14.01,2013-01-23 21:40:00,
2013-01-23 15:43:00,6.0,-0.8,30.12,NW,313,3.0,6.0,73,0.00,,SKC,0.00,VWS V14.01,2013-01-23 21:43:00,
2013-01-23 15:48:00,5.9,-1.5,30.14,WNW,288,9.0,9.0,71,0.00,,SKC,0.00,VWS V14.01,2013-01-23 21:48:00,
2013-01-23 15:50:00,4.4,-2.3,30.18,WNW,293,2.0,10.0,73,0.00,,SKC,0.00,VWS V14.01,2013-01-23 21:50:00,
2013-01-23 15:53:00,5.8,-1.9,30.14,WNW,291,4.0,6.0,70,0.00,,SKC,0.00,VWS V14.01,2013-01-23 21:53:00,
2013-01-23 15:55:00,4.2,-2.5,30.18,West,272,4.0,8.0,73,0.00,,SKC,0.00,VWS V14.01,2013-01-23 21:55:00,
2013-01-23 15:58:00,5.6,-2.0,30.14,WNW,286,4.0,4.0,70,0.00,,SKC,0.00,VWS V14.01,2013-01-23 21:58:00,
2013-01-23 16:03:00,5.6,-2.0,30.15,WNW,302,2.0,7.0,70,0.00,,SKC,0.00,VWS V14.01,2013-01-23 22:03:00,
2013-01-23 16:05:00,3.9,-3.4,30.19,WNW,292,1.0,4.0,71,0.00,,SKC,0.00,VWS V14.01,2013-01-23 22:05:00,
2013-01-23 16:08:00,5.5,-1.3,30.15,WNW,291,4.0,6.0,73,0.00,,SKC,0.00,VWS V14.01,2013-01-23 22:08:00,
2013-01-23 16:10:00,3.7,-3.0,30.19,WSW,237,2.0,5.0,73,0.00,,SKC,0.00,VWS V14.01,2013-01-23 22:10:00,
2013-01-23 16:13:00,5.5,-1.3,30.15,WNW,297,3.0,4.0,73,0.00,,SKC,0.00,VWS V14.01,2013-01-23 22:13:00,
2013-01-23 16:18:00,5.4,-1.4,30.16,West,279,2.0,8.0,73,0.00,,SKC,0.00,VWS V14.01,2013-01-23 22:18:00,
2013-01-23 16:20:00,3.5,-2.6,30.20,West,259,9.0,9.0,75,0.00,,SKC,0.00,VWS V14.01,2013-01-23 22:20:00,
2013-01-23 16:23:00,5.4,-1.6,30.16,WNW,286,3.0,7.0,72,0.00,,SKC,0.00,VWS V14.01,2013-01-23 22:23:00,
2013-01-23 16:28:00,5.4,-1.6,30.16,NW,311,1.0,3.0,72,0.00,,SKC,0.00,VWS V14.01,2013-01-23 22:28:00,
2013-01-23 16:30:00,3.1,-3.3,30.21,WNW,291,6.0,10.0,74,0.00,,SKC,0.00,VWS V14.01,2013-01-23 22:30:00,
2013-01-23 16:33:00,5.2,-2.1,30.17,NW,310,2.0,4.0,71,0.00,,SKC,0.00,VWS V14.01,2013-01-23 22:33:00,
2013-01-23 16:35:00,2.9,-3.2,30.21,West,277,1.0,9.0,75,0.00,,SKC,0.00,VWS V14.01,2013-01-23 22:35:00,
2013-01-23 16:38:00,5.0,-2.0,30.17,West,277,1.0,3.0,72,0.00,,SKC,0.00,VWS V14.01,2013-01-23 22:38:00,
2013-01-23 16:40:00,2.7,-3.1,30.21,West,281,3.0,12.0,76,0.00,,SKC,0.00,VWS V14.01,2013-01-23 22:40:00,
2013-01-23 16:43:00,4.8,-2.2,30.17,West,267,3.0,6.0,72,0.00,,SKC,0.00,VWS V14.01,2013-01-23 22:43:00,
2013-01-23 16:45:00,2.5,-3.0,30.23,West,267,2.0,13.0,77,0.00,,SKC,0.00,VWS V14.01,2013-01-23 22:45:00,
2013-01-23 16:48:00,4.6,-2.4,30.18,WNW,300,3.0,6.0,72,0.00,,SKC,0.00,VWS V14.01,2013-01-23 22:48:00,
2013-01-23 16:50:00,2.4,-2.9,30.23,West,276,2.0,6.0,78,0.00,,SKC,0.00,VWS V14.01,2013-01-23 22:50:00,
2013-01-23 16:53:00,4.3,-2.4,30.18,WNW,286,3.0,8.0,73,0.00,,SKC,0.00,VWS V14.01,2013-01-23 22:53:00,
2013-01-23 16:55:00,2.3,-3.0,30.23,SW,232,5.0,17.0,78,0.00,,SKC,0.00,VWS V14.01,2013-01-23 22:55:00,
2013-01-23 16:58:00,4.2,-2.5,30.18,SSW,200,5.0,5.0,73,0.00,,SKC,0.00,VWS V14.01,2013-01-23 22:58:00,
2013-01-23 17:00:00,2.2,-2.8,30.24,NW,304,4.0,14.0,79,0.00,,SKC,0.00,VWS V14.01,2013-01-23 23:00:00,
2013-01-23 17:03:00,4.0,-3.3,30.19,WNW,283,1.0,4.0,71,0.00,,SKC,0.00,VWS V14.01,2013-01-23 23:03:00,
2013-01-23 17:05:00,2.1,-2.9,30.24,West,260,1.0,8.0,79,0.00,,SKC,0.00,VWS V14.01,2013-01-23 23:05:00,
2013-01-23 17:08:00,3.8,-3.5,30.19,West,265,2.0,3.0,71,0.00,,SKC,0.00,VWS V14.01,2013-01-23 23:08:00,
2013-01-23 17:10:00,2.0,-2.7,30.24,WNW,288,6.0,6.0,80,0.00,,SKC,0.00,VWS V14.01,2013-01-23 23:10:00,
2013-01-23 17:13:00,3.7,-3.0,30.19,West,265,4.0,8.0,73,0.00,,SKC,0.00,VWS V14.01,2013-01-23 23:13:00,
2013-01-23 17:15:00,1.8,-2.9,30.25,WSW,245,3.0,12.0,80,0.00,,SKC,0.00,VWS V14.01,2013-01-23 23:15:00,
2013-01-23 17:18:00,3.6,-2.5,30.20,NW,309,2.0,5.0,75,0.00,,SKC,0.00,VWS V14.01,2013-01-23 23:18:00,
2013-01-23 17:20:00,1.7,-2.8,30.25,West,279,2.0,10.0,81,0.00,,SKC,0.00,VWS V14.01,2013-01-23 23:20:00,
2013-01-23 17:23:00,3.4,-3.0,30.20,West,273,4.0,11.0,74,0.00,,SKC,0.00,VWS V14.01,2013-01-23 23:23:00,
2013-01-23 17:25:00,1.6,-2.9,30.25,West,260,2.0,8.0,81,0.00,,SKC,0.00,VWS V14.01,2013-01-23 23:25:00,
2013-01-23 17:28:00,3.3,-3.1,30.20,WNW,283,3.0,4.0,74,0.00,,SKC,0.00,VWS V14.01,2013-01-23 23:28:00,
2013-01-23 17:30:00,1.5,-2.7,30.26,WNW,291,1.0,6.0,82,0.00,,SKC,0.00,VWS V14.01,2013-01-23 23:30:00,
2013-01-23 17:34:00,3.1,-3.0,30.21,WNW,291,6.0,8.0,75,0.00,,SKC,0.00,VWS V14.01,2013-01-23 23:34:00,
2013-01-23 17:39:00,2.9,-3.2,30.21,NW,310,5.0,12.0,75,0.00,,SKC,0.00,VWS V14.01,2013-01-23 23:39:00,
2013-01-23 17:40:00,1.4,-2.5,30.26,WSW,237,1.0,5.0,83,0.00,,SKC,0.00,VWS V14.01,2013-01-23 23:40:00,
2013-01-23 17:44:00,2.6,-3.2,30.21,ENE,73,4.0,6.0,76,0.00,,SKC,0.00,VWS V14.01,2013-01-23 23:44:00,
2013-01-23 17:45:00,1.4,-2.3,30.28,West,271,1.0,4.0,84,0.00,,SKC,0.00,VWS V14.01,2013-01-23 23:45:00,
2013-01-23 17:49:00,2.5,-3.0,30.23,West,273,3.0,4.0,77,0.00,,SKC,0.00,VWS V14.01,2013-01-23 23:49:00,
2013-01-23 17:50:00,1.3,-2.4,30.28,West,281,5.0,5.0,84,0.00,,SKC,0.00,VWS V14.01,2013-01-23 23:50:00,
2013-01-23 17:54:00,2.4,-2.9,30.23,WNW,294,8.0,17.0,78,0.00,,SKC,0.00,VWS V14.01,2013-01-23 23:54:00,
2013-01-23 17:55:00,1.3,-2.4,30.28,WNW,282,1.0,5.0,84,0.00,,SKC,0.00,VWS V14.01,2013-01-23 23:55:00,
2013-01-23 17:59:00,2.3,-3.0,30.23,WSW,248,4.0,14.0,78,0.00,,SKC,0.00,VWS V14.01,2013-01-23 23:59:00,
2013-01-23 18:00:00,1.3,-2.4,30.29,West,273,1.0,4.0,84,0.00,,SKC,0.00,VWS V14.01,2013-01-24 00:00:00,
2013-01-23 18:04:00,2.2,-2.8,30.24,WNW,286,2.0,4.0,79,0.00,,SKC,0.00,VWS V14.01,2013-01-24 00:04:00,
2013-01-23 18:05:00,1.3,-2.4,30.29,WSW,257,1.0,5.0,84,0.00,,SKC,0.00,VWS V14.01,2013-01-24 00:05:00,
2013-01-23 18:09:00,2.1,-2.9,30.24,SW,236,5.0,6.0,79,0.00,,SKC,0.00,VWS V14.01,2013-01-24 00:09:00,
2013-01-23 18:10:00,1.3,-2.4,30.29,WSW,254,2.0,4.0,84,0.00,,SKC,0.00,VWS V14.01,2013-01-24 00:10:00,
2013-01-23 18:14:00,2.0,-2.7,30.24,West,274,6.0,9.0,80,0.00,,SKC,0.00,VWS V14.01,2013-01-24 00:14:00,
2013-01-23 18:19:00,1.8,-2.9,30.25,WNW,295,3.0,4.0,80,0.00,,SKC,0.00,VWS V14.01,2013-01-24 00:19:00,
2013-01-23 18:20:00,1.3,-2.4,30.30,West,277,3.0,3.0,84,0.00,,SKC,0.00,VWS V14.01,2013-01-24 00:20:00,
2013-01-23 18:24:00,1.7,-2.8,30.25,WNW,288,3.0,8.0,81,0.00,,SKC,0.00,VWS V14.01,2013-01-24 00:24:00,
2013-01-23 18:25:00,1.3,-2.4,30.30,West,275,0.0,3.0,84,0.00,,SKC,0.00,VWS V14.01,2013-01-24 00:25:00,
2013-01-23 18:29:00,1.5,-3.0,30.25,West,273,4.0,5.0,81,0.00,,SKC,0.00,VWS V14.01,2013-01-24 00:29:00,
2013-01-23 18:30:00,1.3,-2.4,30.32,WNW,283,0.0,4.0,84,0.00,,SKC,0.00,VWS V14.01,2013-01-24 00:30:00,
2013-01-23 18:34:00,1.4,-2.8,30.26,West,279,3.0,5.0,82,0.00,,SKC,0.00,VWS V14.01,2013-01-24 00:34:00,
2013-01-23 18:35:00,1.3,-2.4,30.32,West,277,1.0,2.0,84,0.00,,SKC,0.00,VWS V14.01,2013-01-24 00:35:00,
2013-01-23 18:39:00,1.4,-2.5,30.26,WNW,296,2.0,4.0,83,0.00,,SKC,0.00,VWS V14.01,2013-01-24 00:39:00,
2013-01-23 18:40:00,1.2,-2.5,30.32,WNW,286,3.0,5.0,84,0.00,,SKC,0.00,VWS V14.01,2013-01-24 00:40:00,
2013-01-23 18:44:00,1.4,-2.5,30.26,WNW,284,2.0,2.0,83,0.00,,SKC,0.00,VWS V14.01,2013-01-24 00:44:00,
2013-01-23 18:45:00,1.1,-2.6,30.33,WNW,288,2.0,4.0,84,0.00,,SKC,0.00,VWS V14.01,2013-01-24 00:45:00,
2013-01-23 18:49:00,1.4,-2.3,30.28,West,260,2.0,2.0,84,0.00,,SKC,0.00,VWS V14.01,2013-01-24 00:49:00,
2013-01-23 18:50:00,1.0,-2.7,30.33,WSW,257,2.0,5.0,84,0.00,,SKC,0.00,VWS V14.01,2013-01-24 00:50:00,
2013-01-23 18:54:00,1.3,-2.4,30.28,West,273,2.0,5.0,84,0.00,,SKC,0.00,VWS V14.01,2013-01-24 00:54:00,
2013-01-23 18:59:00,1.3,-2.4,30.28,West,279,3.0,4.0,84,0.00,,SKC,0.00,VWS V14.01,2013-01-24 00:59:00,
2013-01-23 19:00:00,0.8,-2.9,30.34,WNW,282,1.0,4.0,84,0.00,,SKC,0.00,VWS V14.01,2013-01-24 01:00:00,
2013-01-23 19:04:00,1.3,-2.4,30.29,West,279,1.0,1.0,84,0.00,,SKC,0.00,VWS V14.01,2013-01-24 01:04:00,
2013-01-23 19:05:00,0.7,-3.0,30.34,West,274,0.0,2.0,84,0.00,,SKC,0.00,VWS V14.01,2013-01-24 01:05:00,
2013-01-23 19:09:00,1.3,-2.4,30.29,West,266,1.0,3.0,84,0.00,,SKC,0.00,VWS V14.01,2013-01-24 01:09:00,
2013-01-23 19:10:00,0.6,-3.1,30.34,West,266,0.0,4.0,84,0.00,,SKC,0.00,VWS V14.01,2013-01-24 01:10:00,
2013-01-23 19:14:00,1.3,-2.4,30.29,NW,304,2.0,2.0,84,0.00,,SKC,0.00,VWS V14.01,2013-01-24 01:14:00,
2013-01-23 19:15:00,0.6,-2.8,30.35,West,264,0.0,2.0,85,0.00,,SKC,0.00,VWS V14.01,2013-01-24 01:15:00,
2013-01-23 19:19:00,1.3,-2.4,30.30,WSW,257,1.0,3.0,84,0.00,,SKC,0.00,VWS V14.01,2013-01-24 01:19:00,
2013-01-23 19:20:00,0.4,-3.3,30.35,West,279,3.0,4.0,84,0.00,,SKC,0.00,VWS V14.01,2013-01-24 01:20:00,
2013-01-23 19:24:00,1.3,-2.4,30.30,West,279,1.0,3.0,84,0.00,,SKC,0.00,VWS V14.01,2013-01-24 01:24:00,
2013-01-23 19:25:00,0.3,-3.4,30.35,West,272,1.0,3.0,84,0.00,,SKC,0.00,VWS V14.01,2013-01-24 01:25:00,
2013-01-23 19:29:00,1.3,-2.4,30.30,West,275,1.0,1.0,84,0.00,,SKC,0.00,VWS V14.01,2013-01-24 01:29:00,
2013-01-23 19:30:00,0.1,-3.7,30.36,West,279,0.0,2.0,84,0.00,,SKC,0.00,VWS V14.01,2013-01-24 01:30:00,
2013-01-23 19:34:00,1.3,-2.4,30.32,West,265,1.0,2.0,84,0.00,,SKC,0.00,VWS V14.01,2013-01-24 01:34:00,
2013-01-23 19:35:00,-0.2,-3.9,30.36,West,271,1.0,3.0,84,0.00,,SKC,0.00,VWS V14.01,2013-01-24 01:35:00,
2013-01-23 19:39:00,1.3,-2.4,30.32,WNW,284,2.0,4.0,84,0.00,,SKC,0.00,VWS V14.01,2013-01-24 01:39:00,
2013-01-23 19:40:00,-0.4,-4.1,30.36,WSW,244,0.0,3.0,84,0.00,,SKC,0.00,VWS V14.01,2013-01-24 01:40:00,
2013-01-23 19:44:00,1.2,-2.5,30.32,West,281,2.0,4.0,84,0.00,,SKC,0.00,VWS V14.01,2013-01-24 01:44:00,
2013-01-23 19:49:00,1.0,-2.7,30.33,WNW,283,2.0,3.0,84,0.00,,SKC,0.00,VWS V14.01,2013-01-24 01:49:00,
2013-01-23 19:50:00,-0.5,-3.9,30.36,West,268,1.0,3.0,85,0.00,,SKC,0.00,VWS V14.01,2013-01-24 01:50:00,
2013-01-23 19:54:00,0.9,-2.8,30.33,West,279,2.0,4.0,84,0.00,,SKC,0.00,VWS V14.01,2013-01-24 01:54:00,
2013-01-23 19:55:00,-0.4,-3.8,30.36,West,276,2.0,3.0,85,0.00,,SKC,0.00,VWS V14.01,2013-01-24 01:55:00,
2013-01-23 19:59:00,0.8,-2.9,30.33,West,265,3.0,4.0,84,0.00,,SKC,0.00,VWS V14.01,2013-01-24 01:59:00,
2013-01-23 20:00:00,-0.3,-3.7,30.38,West,280,2.0,4.0,85,0.00,,SKC,0.00,VWS V14.01,2013-01-24 02:00:00,
2013-01-23 20:04:00,0.8,-2.9,30.34,West,277,2.0,2.0,84,0.00,,SKC,0.00,VWS V14.01,2013-01-24 02:04:00,
2013-01-23 20:05:00,-0.3,-3.7,30.38,WNW,291,1.0,4.0,85,0.00,,SKC,0.00,VWS V14.01,2013-01-24 02:05:00,
2013-01-23 20:09:00,0.7,-3.0,30.34,West,281,1.0,1.0,84,0.00,,SKC,0.00,VWS V14.01,2013-01-24 02:09:00,
2013-01-23 20:14:00,0.6,-3.1,30.34,West,277,2.0,2.0,84,0.00,,SKC,0.00,VWS V14.01,2013-01-24 02:14:00,
2013-01-23 20:15:00,-0.3,-3.7,30.39,WSW,254,0.0,4.0,85,0.00,,SKC,0.00,VWS V14.01,2013-01-24 02:15:00,
2013-01-23 20:19:00,0.5,-3.2,30.35,West,276,4.0,4.0,84,0.00,,SKC,0.00,VWS V14.01,2013-01-24 02:19:00,
2013-01-23 20:24:00,0.4,-3.3,30.35,WSW,256,0.0,3.0,84,0.00,,SKC,0.00,VWS V14.01,2013-01-24 02:24:00,
2013-01-23 20:25:00,-0.5,-4.2,30.39,SW,227,1.0,4.0,84,0.00,,SKC,0.00,VWS V14.01,2013-01-24 02:25:00,
2013-01-23 20:29:00,0.2,-3.5,30.35,West,277,1.0,2.0,84,0.00,,SKC,0.00,VWS V14.01,2013-01-24 02:29:00,
2013-01-23 20:30:00,-0.7,-4.4,30.39,West,279,3.0,4.0,84,0.00,,SKC,0.00,VWS V14.01,2013-01-24 02:30:00,
2013-01-23 20:34:00,-0.1,-3.8,30.36,West,263,0.0,3.0,84,0.00,,SKC,0.00,VWS V14.01,2013-01-24 02:34:00,
2013-01-23 20:35:00,-0.9,-4.6,30.39,WSW,257,0.0,5.0,84,0.00,,SKC,0.00,VWS V14.01,2013-01-24 02:35:00,
2013-01-23 20:39:00,-0.3,-4.0,30.36,West,279,0.0,2.0,84,0.00,,SKC,0.00,VWS V14.01,2013-01-24 02:39:00,
2013-01-23 20:40:00,-1.2,-4.8,30.39,WNW,286,4.0,4.0,84,0.00,,SKC,0.00,VWS V14.01,2013-01-24 02:40:00,
2013-01-23 20:44:00,-0.5,-4.2,30.36,West,272,1.0,2.0,84,0.00,,SKC,0.00,VWS V14.01,2013-01-24 02:44:00,
2013-01-23 20:45:00,-1.4,-5.1,30.40,West,279,0.0,4.0,84,0.00,,SKC,0.00,VWS V14.01,2013-01-24 02:45:00,
2013-01-23 20:49:00,-0.5,-3.9,30.36,West,273,1.0,3.0,85,0.00,,SKC,0.00,VWS V14.01,2013-01-24 02:49:00,
2013-01-23 20:50:00,-1.7,-5.3,30.40,West,271,1.0,2.0,84,0.00,,SKC,0.00,VWS V14.01,2013-01-24 02:50:00,
2013-01-23 20:54:00,-0.5,-3.9,30.36,West,263,1.0,1.0,85,0.00,,SKC,0.00,VWS V14.01,2013-01-24 02:54:00,
2013-01-23 20:55:00,-1.9,-5.5,30.40,West,271,1.0,4.0,84,0.00,,SKC,0.00,VWS V14.01,2013-01-24 02:55:00,
2013-01-23 20:59:00,-0.4,-3.8,30.36,WNW,290,2.0,4.0,85,0.00,,SKC,0.00,VWS V14.01,2013-01-24 02:59:00,
2013-01-23 21:00:00,-2.1,-5.7,30.41,West,265,0.0,2.0,84,0.00,,SKC,0.00,VWS V14.01,2013-01-24 03:00:00,
2013-01-23 21:04:00,-0.3,-3.7,30.38,West,277,2.0,4.0,85,0.00,,SKC,0.00,VWS V14.01,2013-01-24 03:04:00,
2013-01-23 21:05:00,-2.3,-5.9,30.41,West,280,0.0,2.0,84,0.00,,SKC,0.00,VWS V14.01,2013-01-24 03:05:00,
2013-01-23 21:09:00,-0.3,-3.7,30.38,West,272,1.0,3.0,85,0.00,,SKC,0.00,VWS V14.01,2013-01-24 03:09:00,
2013-01-23 21:10:00,-2.6,-6.2,30.41,WNW,282,2.0,3.0,84,0.00,,SKC,0.00,VWS V14.01,2013-01-24 03:10:00,
2013-01-23 21:14:00,-0.3,-3.7,30.38,West,259,1.0,4.0,85,0.00,,SKC,0.00,VWS V14.01,2013-01-24 03:14:00,
2013-01-23 21:15:00,-2.8,-6.4,30.42,WNW,283,2.0,3.0,84,0.00,,SKC,0.00,VWS V14.01,2013-01-24 03:15:00,
2013-01-23 21:19:00,-0.3,-3.7,30.39,WNW,286,1.0,3.0,85,0.00,,SKC,0.00,VWS V14.01,2013-01-24 03:19:00,
2013-01-23 21:20:00,-3.0,-6.6,30.42,WNW,283,0.0,2.0,84,0.00,,SKC,0.00,VWS V14.01,2013-01-24 03:20:00,
2013-01-23 21:24:00,-0.4,-4.1,30.39,West,276,3.0,4.0,84,0.00,,SKC,0.00,VWS V14.01,2013-01-24 03:24:00,
2013-01-23 21:29:00,-0.6,-4.3,30.39,WNW,283,1.0,2.0,84,0.00,,SKC,0.00,VWS V14.01,2013-01-24 03:29:00,
2013-01-23 21:30:00,-3.3,-6.7,30.42,West,275,0.0,2.0,85,0.00,,SKC,0.00,VWS V14.01,2013-01-24 03:30:00,
2013-01-23 21:35:00,-0.8,-4.5,30.39,WNW,292,2.0,4.0,84,0.00,,SKC,0.00,VWS V14.01,2013-01-24 03:35:00,
2013-01-23 21:40:00,-1.0,-4.7,30.39,West,271,2.0,3.0,84,0.00,,SKC,0.00,VWS V14.01,2013-01-24 03:40:00,
2013-01-23 21:45:00,-1.3,-4.9,30.39,WSW,253,0.0,4.0,84,0.00,,SKC,0.00,VWS V14.01,2013-01-24 03:45:00,
2013-01-23 21:50:00,-1.5,-5.2,30.40,West,279,1.0,2.0,84,0.00,,SKC,0.00,VWS V14.01,2013-01-24 03:50:00,
2013-01-23 21:55:00,-1.8,-5.4,30.40,WNW,286,1.0,2.0,84,0.00,,SKC,0.00,VWS V14.01,2013-01-24 03:55:00,
2013-01-23 22:00:00,-1.9,-5.5,30.40,West,266,0.0,2.0,84,0.00,,SKC,0.00,VWS V14.01,2013-01-24 04:00:00,
2013-01-23 22:05:00,-2.2,-5.8,30.41,West,259,1.0,2.0,84,0.00,,SKC,0.00,VWS V14.01,2013-01-24 04:05:00,
2013-01-23 22:10:00,-2.5,-6.1,30.41,West,277,1.0,1.0,84,0.00,,SKC,0.00,VWS V14.01,2013-01-24 04:10:00,
2013-01-23 22:15:00,-2.7,-6.3,30.41,WSW,257,0.0,3.0,84,0.00,,SKC,0.00,VWS V14.01,2013-01-24 04:15:00,
2013-01-23 22:20:00,-2.9,-6.5,30.42,WNW,283,1.0,2.0,84,0.00,,SKC,0.00,VWS V14.01,2013-01-24 04:20:00,
2013-01-23 22:25:00,-3.1,-6.5,30.42,West,271,0.0,2.0,85,0.00,,SKC,0.00,VWS V14.01,2013-01-24 04:25:00,
2013-01-23 22:30:00,-3.2,-6.6,30.42,West,273,0.0,2.0,85,0.00,,SKC,0.00,VWS V14.01,2013-01-24 04:30:00,
2013-01-23 22:35:00,-3.3,-6.7,30.42,West,279,1.0,1.0,85,0.00,,SKC,0.00,VWS V14.01,2013-01-24 04:35:00,
2013-01-23 22:40:00,-3.2,-6.6,30.42,West,267,0.0,1.0,85,0.00,,SKC,0.00,VWS V14.01,2013-01-24 04:40:00,
2013-01-23 22:45:00,-3.2,-6.6,30.42,West,276,1.0,1.0,85,0.00,,SKC,0.00,VWS V14.01,2013-01-24 04:45:00,
2013-01-23 22:50:00,-3.2,-6.6,30.43,West,267,1.0,2.0,85,0.00,,SKC,0.00,VWS V14.01,2013-01-24 04:50:00,
2013-01-23 22:55:00,-3.3,-6.7,30.43,West,269,1.0,3.0,85,0.00,,SKC,0.00,VWS V14.01,2013-01-24 04:55:00,
2013-01-23 23:00:00,-3.3,-6.7,30.43,West,277,0.0,1.0,85,0.00,,SKC,0.00,VWS V14.01,2013-01-24 05:00:00,
2013-01-23 23:01:00,-3.3,-6.7,30.43,West,277,0.0,1.0,85,0.00,,SKC,0.00,VWS V14.01,2013-01-24 05:01:00,
2013-01-23 23:02:00,-3.3,-6.7,30.43,West,279,0.0,1.0,85,0.00,,SKC,0.00,VWS V14.01,2013-01-24 05:02:00,
2013-01-23 23:05:00,-5.9,-9.2,30.47,West,277,0.0,0.0,85,0.00,,SKC,0.00,VWS V14.01,2013-01-24 05:05:00,
2013-01-23 23:07:00,-3.4,-6.8,30.43,NW,321,0.0,0.0,85,0.00,,SKC,0.00,VWS V14.01,2013-01-24 05:07:00,
2013-01-23 23:10:00,-5.8,-9.1,30.47,West,279,1.0,2.0,85,0.00,,SKC,0.00,VWS V14.01,2013-01-24 05:10:00,
2013-01-23 23:12:00,-3.6,-7.0,30.43,West,265,0.0,0.0,85,0.00,,SKC,0.00,VWS V14.01,2013-01-24 05:12:00,
2013-01-23 23:15:00,-5.8,-9.1,30.48,West,278,0.0,1.0,85,0.00,,SKC,0.00,VWS V14.01,2013-01-24 05:15:00,
2013-01-23 23:17:00,-3.9,-7.5,30.45,West,276,0.0,0.0,84,0.00,,SKC,0.00,VWS V14.01,2013-01-24 05:17:00,
2013-01-23 23:20:00,-5.9,-9.2,30.48,West,279,0.0,1.0,85,0.00,,SKC,0.00,VWS V14.01,2013-01-24 05:20:00,
2013-01-23 23:22:00,-4.3,-7.9,30.45,West,279,1.0,1.0,84,0.00,,SKC,0.00,VWS V14.01,2013-01-24 05:22:00,
2013-01-23 23:25:00,-6.0,-9.3,30.48,West,279,0.0,1.0,85,0.00,,SKC,0.00,VWS V14.01,2013-01-24 05:25:00,
2013-01-23 23:27:00,-4.4,-7.8,30.45,West,279,1.0,1.0,85,0.00,,SKC,0.00,VWS V14.01,2013-01-24 05:27:00,
2013-01-23 23:30:00,-6.2,-9.5,30.49,West,281,1.0,3.0,85,0.00,,SKC,0.00,VWS V14.01,2013-01-24 05:30:00,
2013-01-23 23:32:00,-4.7,-8.1,30.47,West,278,0.0,1.0,85,0.00,,SKC,0.00,VWS V14.01,2013-01-24 05:32:00,
2013-01-23 23:35:00,-6.2,-9.5,30.49,WNW,283,0.0,1.0,85,0.00,,SKC,0.00,VWS V14.01,2013-01-24 05:35:00,
2013-01-23 23:37:00,-5.0,-8.3,30.47,West,272,0.0,0.0,85,0.00,,SKC,0.00,VWS V14.01,2013-01-24 05:37:00,
2013-01-23 23:40:00,-6.2,-9.5,30.49,WNW,283,0.0,1.0,85,0.00,,SKC,0.00,VWS V14.01,2013-01-24 05:40:00,
2013-01-23 23:42:00,-5.2,-8.5,30.47,West,272,0.0,0.0,85,0.00,,SKC,0.00,VWS V14.01,2013-01-24 05:42:00,
2013-01-23 23:45:00,-6.3,-9.6,30.50,West,279,1.0,1.0,85,0.00,,SKC,0.00,VWS V14.01,2013-01-24 05:45:00,
2013-01-23 23:47:00,-5.3,-8.6,30.46,West,272,0.0,0.0,85,0.00,,SKC,0.00,VWS V14.01,2013-01-24 05:47:00,
2013-01-23 23:50:00,-6.4,-9.7,30.50,WNW,285,0.0,2.0,85,0.00,,SKC,0.00,VWS V14.01,2013-01-24 05:50:00,
2013-01-23 23:52:00,-5.5,-8.8,30.46,West,277,0.0,1.0,85,0.00,,SKC,0.00,VWS V14.01,2013-01-24 05:52:00,
2013-01-23 23:55:00,-6.6,-9.9,30.50,WNW,286,0.0,2.0,85,0.00,,SKC,0.00,VWS V14.01,2013-01-24 05:55:00,
2013-01-23 23:57:00,-5.7,-9.0,30.46,West,279,0.0,0.0,85,0.00,,SKC,0.00,VWS V14.01,2013-01-24 05:57:00,